createdAt,value
2023-05-21T00:00:10.645Z,15.43
2023-05-21T00:03:14.371Z,16.20
2023-05-21T00:06:16.641Z,21.53
2023-05-21T00:09:18.728Z,14.63
2023-05-21T00:12:20.808Z,16.77
2023-05-21T00:15:22.860Z,14.93
2023-05-21T00:18:25.609Z,16.37
2023-05-21T00:21:27.707Z,19.77
2023-05-21T00:24:29.805Z,16.02
2023-05-21T00:27:31.977Z,18.55
2023-05-21T00:30:34.252Z,17.95
2023-05-21T00:33:36.357Z,16.03
2023-05-21T00:36:40.452Z,16.77
2023-05-21T00:39:43.265Z,17.92
2023-05-21T00:42:48.115Z,15.60
2023-05-21T00:45:50.321Z,18.60
2023-05-21T00:48:52.672Z,16.50
2023-05-21T00:51:55.521Z,18.77
2023-05-21T00:54:57.723Z,18.90
2023-05-21T00:57:59.844Z,17.95
2023-05-21T01:01:04.023Z,17.23
2023-05-21T01:04:06.235Z,16.77
2023-05-21T01:07:09.896Z,16.05
2023-05-21T01:10:12.185Z,17.17
2023-05-21T01:13:16.405Z,17.73
2023-05-21T01:16:18.886Z,16.60
2023-05-21T01:19:22.300Z,17.90
2023-05-21T01:22:25.417Z,17.27
2023-05-21T01:25:27.549Z,17.52
2023-05-21T01:28:30.102Z,19.53
2023-05-21T01:31:55.875Z,19.97
2023-05-21T01:35:09.761Z,17.40
2023-05-21T01:38:22.877Z,18.50
2023-05-21T01:41:26.338Z,16.45
2023-05-21T01:44:28.968Z,19.30
2023-05-21T01:47:32.140Z,16.27
2023-05-21T01:50:35.412Z,19.42
2023-05-21T01:53:40.817Z,18.88
2023-05-21T01:56:42.929Z,21.17
2023-05-21T01:59:45.711Z,15.80
2023-05-21T02:02:48.157Z,17.10
2023-05-21T02:05:52.080Z,16.42
2023-05-21T02:08:55.745Z,17.75
2023-05-21T02:11:58.363Z,19.17
2023-05-21T02:15:00.546Z,16.02
2023-05-21T02:18:03.624Z,18.88
2023-05-21T02:21:05.986Z,18.47
2023-05-21T02:24:08.186Z,19.40
2023-05-21T02:27:10.789Z,16.20
2023-05-21T02:30:13.617Z,16.92
2023-05-21T02:33:16.510Z,16.70
2023-05-21T02:36:19.126Z,17.47
2023-05-21T02:39:21.357Z,18.38
2023-05-21T02:42:23.788Z,21.27
2023-05-21T02:45:26.394Z,16.73
2023-05-21T02:48:28.595Z,15.67
2023-05-21T02:51:30.918Z,15.27
2023-05-21T02:54:33.040Z,16.70
2023-05-21T02:57:35.155Z,15.25
2023-05-21T03:00:37.276Z,19.63
2023-05-21T03:03:39.449Z,16.33
2023-05-21T03:06:41.780Z,19.58
2023-05-21T03:09:43.953Z,15.20
2023-05-21T03:12:46.038Z,16.43
2023-05-21T03:15:48.187Z,18.95
2023-05-21T03:18:50.384Z,17.42
2023-05-21T03:21:52.920Z,18.45
2023-05-21T03:24:55.045Z,23.53
2023-05-21T03:27:57.131Z,16.27
2023-05-21T03:31:28.602Z,15.80
2023-05-21T03:34:47.827Z,17.80
2023-05-21T03:37:52.079Z,18.03
2023-05-21T03:40:54.319Z,21.88
2023-05-21T03:43:56.861Z,17.17
2023-05-21T03:47:03.388Z,15.07
2023-05-21T03:50:09.533Z,17.27
2023-05-21T03:53:12.622Z,16.98
2023-05-21T03:56:15.118Z,16.60
2023-05-21T03:59:17.350Z,15.57
2023-05-21T04:02:21.452Z,19.80
2023-05-21T04:05:23.608Z,15.15
2023-05-21T04:08:26.386Z,12.43
2023-05-21T04:11:28.671Z,19.55
2023-05-21T04:14:30.782Z,14.17
2023-05-21T04:17:33.506Z,17.88
2023-05-21T04:20:35.823Z,16.40
2023-05-21T04:23:37.914Z,15.90
2023-05-21T04:26:46.353Z,14.37
2023-05-21T04:29:50.600Z,15.80
2023-05-21T04:32:54.958Z,14.40
2023-05-21T04:35:58.056Z,12.43
2023-05-21T04:39:00.422Z,17.50
2023-05-21T04:42:03.499Z,14.25
2023-05-21T04:45:06.046Z,17.35
2023-05-21T04:48:10.842Z,16.98
2023-05-21T04:51:12.923Z,15.93
2023-05-21T04:54:15.205Z,13.85
2023-05-21T04:57:18.460Z,13.57
2023-05-21T05:00:20.822Z,13.90
2023-05-21T05:03:23.102Z,13.20
2023-05-21T05:06:26.050Z,15.73
2023-05-21T05:09:30.337Z,13.20
2023-05-21T05:12:32.528Z,15.00
2023-05-21T05:15:34.812Z,16.17
2023-05-21T05:18:37.108Z,13.43
2023-05-21T05:21:39.327Z,14.88
2023-05-21T05:24:41.908Z,15.80
2023-05-21T05:27:44.086Z,17.15
2023-05-21T05:30:46.299Z,13.38
2023-05-21T05:34:08.697Z,15.60
2023-05-21T05:37:11.030Z,16.67
2023-05-21T05:40:13.215Z,12.25
2023-05-21T05:43:15.598Z,12.30
2023-05-21T05:46:18.359Z,14.77
2023-05-21T05:49:20.989Z,13.67
2023-05-21T05:52:23.116Z,12.93
2023-05-21T05:55:26.905Z,14.65
2023-05-21T05:58:30.273Z,14.10
2023-05-21T06:01:42.566Z,11.00
2023-05-21T06:04:44.745Z,12.10
2023-05-21T06:07:46.893Z,11.18
2023-05-21T06:10:48.952Z,19.00
2023-05-21T06:13:51.106Z,11.18
2023-05-21T06:16:53.773Z,10.48
2023-05-21T06:19:56.508Z,10.23
2023-05-21T06:23:00.250Z,10.02
2023-05-21T06:26:02.354Z,9.63
2023-05-21T06:29:04.770Z,11.80
2023-05-21T06:32:08.431Z,10.52
2023-05-21T06:35:24.445Z,13.40
2023-05-21T06:38:26.635Z,13.50
2023-05-21T06:41:28.971Z,12.27
2023-05-21T06:44:34.473Z,9.90
2023-05-21T06:47:46.787Z,12.00
2023-05-21T06:50:48.943Z,10.10
2023-05-21T06:53:52.081Z,12.57
2023-05-21T06:56:54.210Z,11.73
2023-05-21T06:59:56.708Z,13.63
2023-05-21T07:02:58.978Z,11.63
2023-05-21T07:06:01.275Z,10.83
2023-05-21T07:09:04.315Z,10.65
2023-05-21T07:12:06.776Z,9.43
2023-05-21T07:15:09.499Z,8.15
2023-05-21T07:18:12.201Z,20.48
2023-05-21T07:21:14.576Z,11.97
2023-05-21T07:24:16.813Z,11.15
2023-05-21T07:30:27.144Z,7.68
2023-05-21T07:33:29.316Z,9.88
2023-05-21T07:36:33.585Z,10.40
2023-05-21T07:39:36.437Z,9.25
2023-05-21T07:42:38.602Z,7.78
2023-05-21T07:45:41.468Z,9.05
2023-05-21T07:48:43.744Z,10.23
2023-05-21T07:51:46.236Z,7.40
2023-05-21T07:54:48.482Z,9.20
2023-05-21T07:57:52.461Z,7.90
2023-05-21T08:00:59.880Z,8.73
2023-05-21T08:04:06.837Z,8.45
2023-05-21T08:07:10.813Z,8.83
2023-05-21T08:10:12.958Z,7.47
2023-05-21T08:13:16.427Z,7.13
2023-05-21T08:16:18.697Z,7.25
2023-05-21T08:19:21.084Z,6.90
2023-05-21T08:22:23.219Z,6.40
2023-05-21T08:25:25.477Z,8.27
2023-05-21T08:28:30.433Z,7.05
2023-05-21T08:31:32.604Z,8.40
2023-05-21T08:34:35.253Z,7.95
2023-05-21T08:38:03.855Z,9.43
2023-05-21T08:41:22.381Z,5.75
2023-05-21T08:44:25.856Z,6.20
2023-05-21T08:47:30.445Z,6.22
2023-05-21T08:50:32.764Z,8.43
2023-05-21T08:53:40.627Z,6.97
2023-05-21T08:56:47.238Z,5.88
2023-05-21T08:59:51.569Z,6.55
2023-05-21T09:03:01.913Z,5.95
2023-05-21T09:06:04.247Z,7.57
2023-05-21T09:09:13.899Z,6.90
2023-05-21T09:12:19.684Z,7.63
2023-05-21T09:15:21.979Z,6.90
2023-05-21T09:18:24.312Z,6.63
2023-05-21T09:21:55.585Z,6.13
2023-05-21T09:25:04.202Z,6.37
2023-05-21T09:28:11.685Z,8.30
2023-05-21T09:31:15.393Z,7.05
2023-05-21T09:34:17.666Z,6.47
2023-05-21T09:40:28.850Z,8.33
2023-05-21T09:43:31.537Z,6.32
2023-05-21T09:46:39.931Z,9.05
2023-05-21T09:49:44.363Z,7.30
2023-05-21T09:52:47.088Z,7.50
2023-05-21T09:55:53.522Z,6.43
2023-05-21T09:58:57.053Z,5.93
2023-05-21T10:01:59.911Z,7.43
2023-05-21T10:05:04.031Z,7.55
2023-05-21T10:08:09.130Z,8.10
2023-05-21T10:11:11.963Z,5.40
2023-05-21T10:14:16.528Z,10.48
2023-05-21T10:17:18.625Z,8.15
2023-05-21T10:20:21.044Z,7.28
2023-05-21T10:23:24.172Z,6.65
2023-05-21T10:26:26.622Z,8.30
2023-05-21T10:29:29.009Z,8.00
2023-05-21T10:32:31.873Z,8.60
2023-05-21T10:35:34.473Z,7.85
2023-05-21T10:38:38.634Z,7.65
2023-05-21T10:41:53.996Z,5.20
2023-05-21T10:44:56.478Z,6.43
2023-05-21T10:48:05.310Z,6.97
2023-05-21T10:51:15.745Z,8.55
2023-05-21T10:54:32.619Z,8.38
2023-05-21T10:57:40.813Z,6.37
2023-05-21T11:00:43.915Z,6.65
2023-05-21T11:03:49.671Z,8.77
2023-05-21T11:06:51.867Z,7.00
2023-05-21T11:10:15.142Z,5.60
2023-05-21T11:13:17.197Z,7.90
2023-05-21T11:16:21.982Z,5.72
2023-05-21T11:19:34.194Z,8.52
2023-05-21T11:22:36.840Z,6.82
2023-05-21T11:25:38.883Z,6.35
2023-05-21T11:28:41.391Z,8.97
2023-05-21T11:31:47.940Z,8.70
2023-05-21T11:34:50.408Z,6.22
2023-05-21T11:37:54.041Z,8.68
2023-05-21T11:41:01.295Z,6.90
2023-05-21T11:44:03.411Z,5.33
2023-05-21T11:47:06.190Z,6.15
2023-05-21T11:50:12.262Z,7.13
2023-05-21T11:53:14.730Z,7.38
2023-05-21T11:56:18.489Z,6.30
2023-05-21T11:59:20.788Z,6.80
2023-05-21T12:02:23.082Z,10.27
2023-05-21T12:05:25.358Z,9.10
2023-05-21T12:08:27.709Z,9.93
2023-05-21T12:11:29.807Z,8.65
2023-05-21T12:14:32.111Z,7.07
2023-05-21T12:17:34.272Z,6.75
2023-05-21T12:20:36.815Z,9.63
2023-05-21T12:23:39.048Z,8.65
2023-05-21T12:26:42.130Z,8.38
2023-05-21T12:29:45.332Z,7.53
2023-05-21T12:32:48.900Z,6.47
2023-05-21T12:35:52.639Z,6.53
2023-05-21T12:38:54.864Z,8.30
2023-05-21T12:41:56.900Z,8.25
2023-05-21T12:44:59.170Z,6.30
2023-05-21T12:48:01.852Z,9.18
2023-05-21T12:51:04.032Z,9.10
2023-05-21T12:54:12.057Z,9.48
2023-05-21T12:57:17.947Z,7.57
2023-05-21T13:00:23.693Z,6.47
2023-05-21T13:03:26.557Z,8.68
2023-05-21T13:06:28.686Z,9.20
2023-05-21T13:09:30.803Z,7.72
2023-05-21T13:12:33.463Z,8.35
2023-05-21T13:15:35.857Z,6.40
2023-05-21T13:18:38.117Z,7.53
2023-05-21T13:21:40.169Z,7.07
2023-05-21T13:24:42.184Z,6.50
2023-05-21T13:27:44.737Z,11.23
2023-05-21T13:30:46.780Z,9.43
2023-05-21T13:33:48.941Z,7.20
2023-05-21T13:36:51.162Z,6.93
2023-05-21T13:39:53.369Z,5.90
2023-05-21T13:42:55.480Z,7.20
2023-05-21T13:45:57.617Z,8.27
2023-05-21T13:49:00.801Z,5.57
2023-05-21T13:52:03.641Z,5.90
2023-05-21T13:55:06.075Z,7.40
2023-05-21T13:58:08.232Z,7.13
2023-05-21T14:01:10.626Z,7.13
2023-05-21T14:04:12.744Z,8.82
2023-05-21T14:07:14.861Z,5.88
2023-05-21T14:10:17.217Z,7.63
2023-05-21T14:13:20.248Z,9.15
2023-05-21T14:16:25.016Z,6.20
2023-05-21T14:19:27.391Z,9.85
2023-05-21T14:22:29.742Z,11.02
2023-05-21T14:25:31.761Z,7.75
2023-05-21T14:28:33.798Z,10.60
2023-05-21T14:31:36.160Z,5.40
2023-05-21T14:34:39.210Z,5.97
2023-05-21T14:37:41.300Z,7.63
2023-05-21T14:40:43.457Z,7.05
2023-05-21T14:43:45.585Z,10.00
2023-05-21T14:46:47.810Z,6.97
2023-05-21T14:49:51.607Z,8.95
2023-05-21T14:52:54.278Z,8.07
2023-05-21T14:55:56.327Z,7.03
2023-05-21T14:58:58.404Z,8.07
2023-05-21T15:02:00.612Z,10.00
2023-05-21T15:05:02.721Z,7.13
2023-05-21T15:08:06.042Z,6.80
2023-05-21T15:11:09.999Z,7.28
2023-05-21T15:14:12.546Z,8.43
2023-05-21T15:17:14.623Z,7.00
2023-05-21T15:20:17.032Z,7.05
2023-05-21T15:23:19.139Z,5.78
2023-05-21T15:26:21.755Z,9.73
2023-05-21T15:29:23.888Z,7.22
2023-05-21T15:32:26.068Z,7.83
2023-05-21T15:35:28.260Z,7.75
2023-05-21T15:38:30.675Z,6.32
2023-05-21T15:41:35.489Z,6.32
2023-05-21T15:44:38.092Z,7.38
2023-05-21T15:47:42.801Z,6.97
2023-05-21T15:50:45.145Z,9.38
2023-05-21T15:53:47.206Z,6.82
2023-05-21T15:56:49.720Z,6.57
2023-05-21T15:59:52.791Z,9.90
2023-05-21T16:02:55.019Z,6.83
2023-05-21T16:05:57.259Z,8.48
2023-05-21T16:08:59.610Z,9.02
2023-05-21T16:12:01.702Z,8.20
2023-05-21T16:15:04.161Z,9.60
2023-05-21T16:18:08.335Z,6.20
2023-05-21T16:21:10.574Z,6.18
2023-05-21T16:24:12.679Z,6.18
2023-05-21T16:27:14.999Z,9.38
2023-05-21T16:30:17.181Z,5.85
2023-05-21T16:33:19.296Z,9.10
2023-05-21T16:36:21.529Z,11.52
2023-05-21T16:39:23.739Z,8.00
2023-05-21T16:42:26.013Z,6.07
2023-05-21T16:45:34.841Z,5.68
2023-05-21T16:48:38.559Z,6.67
2023-05-21T16:51:40.723Z,6.03
2023-05-21T16:54:45.216Z,9.50
2023-05-21T16:57:47.882Z,7.18
2023-05-21T17:00:49.989Z,7.15
2023-05-21T17:03:53.309Z,8.13
2023-05-21T17:06:55.663Z,7.57
2023-05-21T17:09:57.806Z,7.72
2023-05-21T17:13:04.026Z,11.90
2023-05-21T17:16:12.238Z,7.38
2023-05-21T17:19:14.396Z,7.80
2023-05-21T17:22:16.597Z,11.60
2023-05-21T17:25:18.853Z,7.30
2023-05-21T17:28:21.111Z,8.10
2023-05-21T17:31:23.353Z,7.65
2023-05-21T17:34:29.475Z,11.40
2023-05-21T17:37:31.717Z,11.05
2023-05-21T17:40:33.902Z,9.30
2023-05-21T17:43:36.094Z,8.43
2023-05-21T17:46:38.238Z,11.52
2023-05-21T17:49:40.363Z,10.30
2023-05-21T17:52:42.531Z,10.23
2023-05-21T17:55:44.608Z,11.13
2023-05-21T17:58:46.769Z,8.98
2023-05-21T18:01:48.840Z,10.00
2023-05-21T18:04:51.025Z,8.47
2023-05-21T18:07:53.100Z,10.55
2023-05-21T18:10:55.176Z,9.77
2023-05-21T18:13:57.263Z,12.25
2023-05-21T18:16:59.631Z,7.53
2023-05-21T18:20:01.946Z,8.10
2023-05-21T18:23:04.104Z,9.38
2023-05-21T18:26:06.234Z,9.35
2023-05-21T18:29:10.923Z,10.75
2023-05-21T18:32:15.330Z,7.95
2023-05-21T18:35:17.568Z,9.70
2023-05-21T18:38:19.637Z,13.32
2023-05-21T18:41:22.487Z,9.13
2023-05-21T18:44:24.725Z,9.23
2023-05-21T18:47:26.785Z,9.07
2023-05-21T18:50:29.005Z,8.63
2023-05-21T18:53:31.195Z,9.00
2023-05-21T18:56:33.367Z,8.23
2023-05-21T18:59:35.652Z,10.30
2023-05-21T19:02:37.925Z,12.43
2023-05-21T19:05:40.215Z,9.33
2023-05-21T19:08:42.474Z,9.25
2023-05-21T19:11:44.511Z,9.25
2023-05-21T19:14:46.723Z,9.75
2023-05-21T19:17:48.928Z,10.52
2023-05-21T19:20:51.039Z,9.53
2023-05-21T19:23:53.923Z,9.43
2023-05-21T19:26:56.250Z,10.95
2023-05-21T19:29:58.346Z,12.80
2023-05-21T19:33:00.759Z,11.40
2023-05-21T19:36:02.925Z,11.60
2023-05-21T19:39:05.158Z,10.10
2023-05-21T19:42:07.532Z,8.82
2023-05-21T19:45:09.947Z,9.00
2023-05-21T19:48:12.467Z,11.27
2023-05-21T19:51:14.596Z,9.57
2023-05-21T19:54:16.674Z,10.20
2023-05-21T19:57:18.976Z,9.15
2023-05-21T20:00:21.566Z,10.95
2023-05-21T20:03:24.353Z,12.55
2023-05-21T20:06:26.772Z,9.90
2023-05-21T20:09:28.848Z,9.98
2023-05-21T20:12:31.227Z,11.90
2023-05-21T20:15:33.433Z,10.55
2023-05-21T20:18:35.707Z,9.25
2023-05-21T20:21:37.894Z,12.37
2023-05-21T20:24:39.982Z,16.73
2023-05-21T20:27:42.419Z,12.75
2023-05-21T20:30:54.787Z,13.13
2023-05-21T20:33:56.881Z,15.73
2023-05-21T20:36:59.016Z,10.90
2023-05-21T20:40:01.164Z,11.77
2023-05-21T20:43:03.299Z,18.20
2023-05-21T20:46:06.033Z,13.13
2023-05-21T20:49:09.885Z,14.00
2023-05-21T20:52:12.362Z,15.33
2023-05-21T20:55:14.752Z,11.98
2023-05-21T20:58:17.048Z,14.00
2023-05-21T21:01:19.252Z,13.23
2023-05-21T21:04:22.200Z,10.82
2023-05-21T21:07:24.297Z,8.20
2023-05-21T21:10:26.397Z,9.50
2023-05-21T21:13:28.520Z,8.40
2023-05-21T21:16:30.794Z,13.43
2023-05-21T21:19:32.957Z,8.10
2023-05-21T21:22:35.111Z,7.70
2023-05-21T21:25:37.248Z,8.52
2023-05-21T21:28:39.301Z,7.82
2023-05-21T21:31:41.841Z,8.13
2023-05-21T21:34:43.923Z,9.43
2023-05-21T21:37:46.117Z,7.03
2023-05-21T21:40:48.214Z,7.78
2023-05-21T21:43:51.791Z,9.52
2023-05-21T21:46:53.801Z,9.55
2023-05-21T21:49:56.194Z,10.20
2023-05-21T21:52:58.431Z,9.00
2023-05-21T21:56:00.827Z,7.65
2023-05-21T21:59:03.227Z,10.05
2023-05-21T22:02:05.791Z,10.13
2023-05-21T22:05:08.827Z,7.07
2023-05-21T22:08:11.458Z,8.67
2023-05-21T22:11:13.574Z,7.82
2023-05-21T22:14:15.647Z,9.95
2023-05-21T22:17:18.120Z,9.02
2023-05-21T22:20:20.348Z,8.30
2023-05-21T22:23:22.403Z,9.10
2023-05-21T22:26:24.636Z,7.15
2023-05-21T22:29:26.648Z,10.07
2023-05-21T22:32:28.770Z,8.15
2023-05-21T22:35:31.000Z,8.82
2023-05-21T22:38:33.130Z,10.37
2023-05-21T22:41:35.208Z,8.65
2023-05-21T22:44:37.245Z,11.32
2023-05-21T22:47:42.281Z,8.27
2023-05-21T22:50:44.645Z,10.30
2023-05-21T22:53:46.711Z,9.00
2023-05-21T22:56:49.928Z,9.40
2023-05-21T22:59:51.985Z,11.93
2023-05-21T23:02:54.738Z,11.05
2023-05-21T23:05:57.116Z,9.98
2023-05-21T23:08:59.165Z,10.63
2023-05-21T23:12:01.476Z,10.00
2023-05-21T23:15:04.694Z,9.45
2023-05-21T23:18:08.791Z,10.07
2023-05-21T23:21:11.258Z,15.88
2023-05-21T23:24:13.387Z,10.77
2023-05-21T23:27:15.554Z,13.30
2023-05-21T23:30:17.738Z,10.65
2023-05-21T23:33:19.981Z,10.02
2023-05-21T23:36:22.210Z,14.30
2023-05-21T23:39:24.277Z,10.13
2023-05-21T23:42:26.389Z,8.63
2023-05-21T23:45:28.467Z,10.40
2023-05-21T23:48:30.598Z,10.18
2023-05-21T23:51:32.664Z,10.67
2023-05-21T23:54:34.738Z,11.53
2023-05-21T23:57:36.808Z,11.80
